sensor_id;sensor_type;location;lat;lon;timestamp;temperature;humidity
17033;DHT22;63208;52.178;21.016;2023-05-16T00:01:14;12.60;99.90
17033;DHT22;63208;52.178;21.016;2023-05-16T00:03:40;12.60;99.90
17033;DHT22;63208;52.178;21.016;2023-05-16T00:06:08;12.60;99.90
17033;DHT22;63208;52.178;21.016;2023-05-16T00:08:35;12.60;99.90
17033;DHT22;63208;52.178;21.016;2023-05-16T00:11:02;12.60;99.90
17033;DHT22;63208;52.178;21.016;2023-05-16T00:13:30;12.60;99.90
17033;DHT22;63208;52.178;21.016;2023-05-16T00:15:57;12.60;99.90
17033;DHT22;63208;52.178;21.016;2023-05-16T00:18:26;12.60;99.90
17033;DHT22;63208;52.178;21.016;2023-05-16T00:20:53;12.50;99.90
17033;DHT22;63208;52.178;21.016;2023-05-16T00:23:20;12.50;99.90
17033;DHT22;63208;52.178;21.016;2023-05-16T00:25:47;12.50;99.90
17033;DHT22;63208;52.178;21.016;2023-05-16T00:28:15;12.50;99.90
17033;DHT22;63208;52.178;21.016;2023-05-16T00:30:44;12.60;99.90
17033;DHT22;63208;52.178;21.016;2023-05-16T00:33:10;12.60;99.90
17033;DHT22;63208;52.178;21.016;2023-05-16T00:35:37;12.50;99.90
17033;DHT22;63208;52.178;21.016;2023-05-16T00:38:04;12.60;99.90
17033;DHT22;63208;52.178;21.016;2023-05-16T00:40:30;12.60;99.90
17033;DHT22;63208;52.178;21.016;2023-05-16T00:42:57;12.60;99.90
17033;DHT22;63208;52.178;21.016;2023-05-16T00:45:24;12.60;99.90
17033;DHT22;63208;52.178;21.016;2023-05-16T00:47:52;13.60;99.90
17033;DHT22;63208;52.178;21.016;2023-05-16T00:50:19;12.50;99.90
17033;DHT22;63208;52.178;21.016;2023-05-16T00:52:46;12.50;99.90
17033;DHT22;63208;52.178;21.016;2023-05-16T00:55:13;12.50;99.90
17033;DHT22;63208;52.178;21.016;2023-05-16T00:57:39;13.10;99.90
17033;DHT22;63208;52.178;21.016;2023-05-16T01:00:07;12.50;99.90
17033;DHT22;63208;52.178;21.016;2023-05-16T01:02:34;12.60;99.90
17033;DHT22;63208;52.178;21.016;2023-05-16T01:05:03;12.60;99.90
17033;DHT22;63208;52.178;21.016;2023-05-16T01:07:31;12.60;99.90
17033;DHT22;63208;52.178;21.016;2023-05-16T01:09:58;12.60;99.90
17033;DHT22;63208;52.178;21.016;2023-05-16T01:12:28;12.60;99.90
17033;DHT22;63208;52.178;21.016;2023-05-16T01:14:56;12.60;99.90
17033;DHT22;63208;52.178;21.016;2023-05-16T01:17:26;12.70;99.90
17033;DHT22;63208;52.178;21.016;2023-05-16T01:20:01;12.60;99.90
17033;DHT22;63208;52.178;21.016;2023-05-16T01:22:37;12.60;99.90
17033;DHT22;63208;52.178;21.016;2023-05-16T01:25:10;12.60;99.90
17033;DHT22;63208;52.178;21.016;2023-05-16T01:27:43;12.60;99.90
17033;DHT22;63208;52.178;21.016;2023-05-16T01:30:14;12.50;99.90
17033;DHT22;63208;52.178;21.016;2023-05-16T01:32:41;12.60;99.90
17033;DHT22;63208;52.178;21.016;2023-05-16T01:35:08;12.50;99.90
17033;DHT22;63208;52.178;21.016;2023-05-16T01:37:38;12.50;99.90
17033;DHT22;63208;52.178;21.016;2023-05-16T01:40:07;12.50;99.90
17033;DHT22;63208;52.178;21.016;2023-05-16T01:42:38;12.50;99.90
17033;DHT22;63208;52.178;21.016;2023-05-16T01:45:11;12.50;99.90
17033;DHT22;63208;52.178;21.016;2023-05-16T01:47:40;12.50;99.90
17033;DHT22;63208;52.178;21.016;2023-05-16T01:50:09;12.50;99.90
17033;DHT22;63208;52.178;21.016;2023-05-16T01:52:37;12.50;99.90
17033;DHT22;63208;52.178;21.016;2023-05-16T01:55:04;12.50;99.90
17033;DHT22;63208;52.178;21.016;2023-05-16T01:57:34;12.50;99.90
17033;DHT22;63208;52.178;21.016;2023-05-16T02:00:01;12.50;99.90
17033;DHT22;63208;52.178;21.016;2023-05-16T02:02:29;12.40;99.90
17033;DHT22;63208;52.178;21.016;2023-05-16T02:04:56;12.60;99.90
17033;DHT22;63208;52.178;21.016;2023-05-16T02:07:23;12.50;99.90
17033;DHT22;63208;52.178;21.016;2023-05-16T02:09:50;12.50;99.90
17033;DHT22;63208;52.178;21.016;2023-05-16T02:12:16;12.40;99.90
17033;DHT22;63208;52.178;21.016;2023-05-16T02:14:43;12.40;99.90
17033;DHT22;63208;52.178;21.016;2023-05-16T02:17:10;12.40;99.90
17033;DHT22;63208;52.178;21.016;2023-05-16T02:19:38;12.30;99.90
17033;DHT22;63208;52.178;21.016;2023-05-16T02:22:04;12.30;99.90
17033;DHT22;63208;52.178;21.016;2023-05-16T02:24:31;12.30;99.90
17033;DHT22;63208;52.178;21.016;2023-05-16T02:26:58;12.20;99.90
17033;DHT22;63208;52.178;21.016;2023-05-16T02:29:24;12.20;99.90
17033;DHT22;63208;52.178;21.016;2023-05-16T02:31:51;12.20;99.90
17033;DHT22;63208;52.178;21.016;2023-05-16T02:34:18;12.20;99.90
17033;DHT22;63208;52.178;21.016;2023-05-16T02:36:46;12.10;99.90
17033;DHT22;63208;52.178;21.016;2023-05-16T02:39:13;12.10;99.90
17033;DHT22;63208;52.178;21.016;2023-05-16T02:41:40;12.20;99.90
17033;DHT22;63208;52.178;21.016;2023-05-16T02:44:06;12.10;99.90
17033;DHT22;63208;52.178;21.016;2023-05-16T02:46:33;12.10;99.90
17033;DHT22;63208;52.178;21.016;2023-05-16T02:49:00;12.10;99.90
17033;DHT22;63208;52.178;21.016;2023-05-16T02:51:28;12.20;99.90
17033;DHT22;63208;52.178;21.016;2023-05-16T02:53:56;12.10;99.90
17033;DHT22;63208;52.178;21.016;2023-05-16T02:56:24;12.00;99.90
17033;DHT22;63208;52.178;21.016;2023-05-16T02:58:52;12.00;99.90
17033;DHT22;63208;52.178;21.016;2023-05-16T03:01:19;12.00;99.90
17033;DHT22;63208;52.178;21.016;2023-05-16T03:03:46;11.90;99.90
17033;DHT22;63208;52.178;21.016;2023-05-16T03:06:12;11.90;99.90
17033;DHT22;63208;52.178;21.016;2023-05-16T03:08:39;11.90;99.90
17033;DHT22;63208;52.178;21.016;2023-05-16T03:11:07;11.90;99.90
17033;DHT22;63208;52.178;21.016;2023-05-16T03:13:34;11.80;99.90
17033;DHT22;63208;52.178;21.016;2023-05-16T03:16:01;11.70;99.90
17033;DHT22;63208;52.178;21.016;2023-05-16T03:18:28;11.70;99.90
17033;DHT22;63208;52.178;21.016;2023-05-16T03:20:55;11.70;99.90
17033;DHT22;63208;52.178;21.016;2023-05-16T03:23:21;11.70;99.90
17033;DHT22;63208;52.178;21.016;2023-05-16T03:25:48;11.70;99.90
17033;DHT22;63208;52.178;21.016;2023-05-16T03:28:16;11.70;99.90
17033;DHT22;63208;52.178;21.016;2023-05-16T03:30:43;11.70;99.90
17033;DHT22;63208;52.178;21.016;2023-05-16T03:33:10;11.70;99.90
17033;DHT22;63208;52.178;21.016;2023-05-16T03:35:36;11.70;99.90
17033;DHT22;63208;52.178;21.016;2023-05-16T03:38:03;11.70;99.90
17033;DHT22;63208;52.178;21.016;2023-05-16T03:40:30;11.70;99.90
17033;DHT22;63208;52.178;21.016;2023-05-16T03:42:56;11.70;99.90
17033;DHT22;63208;52.178;21.016;2023-05-16T03:45:25;11.70;99.90
17033;DHT22;63208;52.178;21.016;2023-05-16T03:47:51;11.70;99.90
17033;DHT22;63208;52.178;21.016;2023-05-16T03:50:18;11.70;99.90
17033;DHT22;63208;52.178;21.016;2023-05-16T03:52:45;11.70;99.90
17033;DHT22;63208;52.178;21.016;2023-05-16T03:55:11;11.70;99.90
17033;DHT22;63208;52.178;21.016;2023-05-16T03:57:39;11.80;99.90
17033;DHT22;63208;52.178;21.016;2023-05-16T04:00:06;11.70;99.90
17033;DHT22;63208;52.178;21.016;2023-05-16T04:02:38;11.80;99.90
17033;DHT22;63208;52.178;21.016;2023-05-16T04:05:06;11.80;99.90
17033;DHT22;63208;52.178;21.016;2023-05-16T04:07:33;11.80;99.90
17033;DHT22;63208;52.178;21.016;2023-05-16T04:10:00;11.80;99.90
17033;DHT22;63208;52.178;21.016;2023-05-16T04:12:27;11.90;99.90
17033;DHT22;63208;52.178;21.016;2023-05-16T04:14:53;11.80;99.90
17033;DHT22;63208;52.178;21.016;2023-05-16T04:17:20;11.90;99.90
17033;DHT22;63208;52.178;21.016;2023-05-16T04:19:48;12.00;99.90
17033;DHT22;63208;52.178;21.016;2023-05-16T04:22:15;12.00;99.90
17033;DHT22;63208;52.178;21.016;2023-05-16T04:24:42;12.00;99.90
17033;DHT22;63208;52.178;21.016;2023-05-16T04:27:08;12.30;99.90
17033;DHT22;63208;52.178;21.016;2023-05-16T04:29:36;12.10;99.90
17033;DHT22;63208;52.178;21.016;2023-05-16T04:32:03;12.00;99.90
17033;DHT22;63208;52.178;21.016;2023-05-16T04:34:31;12.10;99.90
17033;DHT22;63208;52.178;21.016;2023-05-16T04:37:00;12.10;99.90
17033;DHT22;63208;52.178;21.016;2023-05-16T04:39:26;12.40;99.90
17033;DHT22;63208;52.178;21.016;2023-05-16T04:42:11;12.40;99.90
17033;DHT22;63208;52.178;21.016;2023-05-16T04:44:37;12.70;99.90
17033;DHT22;63208;52.178;21.016;2023-05-16T04:47:04;12.40;99.90
17033;DHT22;63208;52.178;21.016;2023-05-16T04:49:31;12.50;99.90
17033;DHT22;63208;52.178;21.016;2023-05-16T04:51:59;12.40;99.90
17033;DHT22;63208;52.178;21.016;2023-05-16T04:54:26;12.70;99.90
17033;DHT22;63208;52.178;21.016;2023-05-16T04:56:53;12.80;99.90
17033;DHT22;63208;52.178;21.016;2023-05-16T04:59:20;12.70;99.90
17033;DHT22;63208;52.178;21.016;2023-05-16T05:04:14;13.70;99.90
17033;DHT22;63208;52.178;21.016;2023-05-16T05:06:42;12.70;99.90
17033;DHT22;63208;52.178;21.016;2023-05-16T05:09:10;12.80;99.90
17033;DHT22;63208;52.178;21.016;2023-05-16T05:11:37;13.00;99.90
17033;DHT22;63208;52.178;21.016;2023-05-16T05:14:03;12.90;99.90
17033;DHT22;63208;52.178;21.016;2023-05-16T05:16:30;12.90;99.90
17033;DHT22;63208;52.178;21.016;2023-05-16T05:18:57;12.90;99.90
17033;DHT22;63208;52.178;21.016;2023-05-16T05:21:24;12.90;99.90
17033;DHT22;63208;52.178;21.016;2023-05-16T05:23:51;13.00;99.90
17033;DHT22;63208;52.178;21.016;2023-05-16T05:26:19;13.00;99.90
17033;DHT22;63208;52.178;21.016;2023-05-16T05:28:47;13.10;99.90
17033;DHT22;63208;52.178;21.016;2023-05-16T05:31:16;13.40;99.90
17033;DHT22;63208;52.178;21.016;2023-05-16T05:33:43;13.30;99.90
17033;DHT22;63208;52.178;21.016;2023-05-16T05:36:09;13.30;99.90
17033;DHT22;63208;52.178;21.016;2023-05-16T05:38:36;13.40;99.90
17033;DHT22;63208;52.178;21.016;2023-05-16T05:41:03;13.30;99.90
17033;DHT22;63208;52.178;21.016;2023-05-16T05:43:32;13.40;99.90
17033;DHT22;63208;52.178;21.016;2023-05-16T05:45:59;13.50;99.90
17033;DHT22;63208;52.178;21.016;2023-05-16T05:48:26;13.60;99.90
17033;DHT22;63208;52.178;21.016;2023-05-16T05:50:54;13.60;99.90
17033;DHT22;63208;52.178;21.016;2023-05-16T05:53:21;13.10;99.90
17033;DHT22;63208;52.178;21.016;2023-05-16T05:55:48;14.40;99.90
17033;DHT22;63208;52.178;21.016;2023-05-16T05:58:14;13.70;99.90
17033;DHT22;63208;52.178;21.016;2023-05-16T06:00:43;13.80;99.90
17033;DHT22;63208;52.178;21.016;2023-05-16T06:03:10;13.70;99.90
17033;DHT22;63208;52.178;21.016;2023-05-16T06:05:38;13.60;99.90
17033;DHT22;63208;52.178;21.016;2023-05-16T06:10:32;13.60;99.90
17033;DHT22;63208;52.178;21.016;2023-05-16T06:12:59;13.60;99.90
17033;DHT22;63208;52.178;21.016;2023-05-16T06:15:28;13.60;99.90
17033;DHT22;63208;52.178;21.016;2023-05-16T06:17:56;13.60;99.90
17033;DHT22;63208;52.178;21.016;2023-05-16T06:23:26;13.60;99.90
17033;DHT22;63208;52.178;21.016;2023-05-16T06:25:53;13.50;99.90
17033;DHT22;63208;52.178;21.016;2023-05-16T06:28:20;13.50;99.90
17033;DHT22;63208;52.178;21.016;2023-05-16T06:30:48;13.50;99.90
17033;DHT22;63208;52.178;21.016;2023-05-16T06:33:17;13.50;99.90
17033;DHT22;63208;52.178;21.016;2023-05-16T06:35:44;13.50;99.90
17033;DHT22;63208;52.178;21.016;2023-05-16T06:38:13;13.60;99.90
17033;DHT22;63208;52.178;21.016;2023-05-16T06:40:39;13.50;99.90
17033;DHT22;63208;52.178;21.016;2023-05-16T06:43:06;13.50;99.90
17033;DHT22;63208;52.178;21.016;2023-05-16T06:45:33;13.50;99.90
17033;DHT22;63208;52.178;21.016;2023-05-16T06:48:05;14.10;99.90
17033;DHT22;63208;52.178;21.016;2023-05-16T06:50:45;13.50;99.90
17033;DHT22;63208;52.178;21.016;2023-05-16T06:53:12;13.50;99.90
17033;DHT22;63208;52.178;21.016;2023-05-16T06:55:44;13.40;99.90
17033;DHT22;63208;52.178;21.016;2023-05-16T06:58:13;13.40;99.90
17033;DHT22;63208;52.178;21.016;2023-05-16T07:00:40;13.50;99.90
17033;DHT22;63208;52.178;21.016;2023-05-16T07:03:08;13.30;99.90
17033;DHT22;63208;52.178;21.016;2023-05-16T07:05:35;13.30;99.90
17033;DHT22;63208;52.178;21.016;2023-05-16T07:08:03;13.40;99.90
17033;DHT22;63208;52.178;21.016;2023-05-16T07:10:33;13.30;99.90
17033;DHT22;63208;52.178;21.016;2023-05-16T07:13:01;13.30;99.90
17033;DHT22;63208;52.178;21.016;2023-05-16T07:15:29;13.30;99.90
17033;DHT22;63208;52.178;21.016;2023-05-16T07:17:56;12.90;99.90
17033;DHT22;63208;52.178;21.016;2023-05-16T07:20:23;13.40;99.90
17033;DHT22;63208;52.178;21.016;2023-05-16T07:22:50;13.40;99.90
17033;DHT22;63208;52.178;21.016;2023-05-16T07:25:18;13.40;99.90
17033;DHT22;63208;52.178;21.016;2023-05-16T07:27:45;13.40;99.90
17033;DHT22;63208;52.178;21.016;2023-05-16T07:30:12;13.60;99.90
17033;DHT22;63208;52.178;21.016;2023-05-16T07:32:39;13.40;99.90
17033;DHT22;63208;52.178;21.016;2023-05-16T07:35:07;13.40;99.90
17033;DHT22;63208;52.178;21.016;2023-05-16T07:37:34;13.50;99.90
17033;DHT22;63208;52.178;21.016;2023-05-16T07:40:01;13.50;99.90
17033;DHT22;63208;52.178;21.016;2023-05-16T07:42:30;13.50;99.90
17033;DHT22;63208;52.178;21.016;2023-05-16T07:44:57;13.40;99.90
17033;DHT22;63208;52.178;21.016;2023-05-16T07:47:24;13.30;99.90
17033;DHT22;63208;52.178;21.016;2023-05-16T07:49:51;13.40;99.90
17033;DHT22;63208;52.178;21.016;2023-05-16T07:52:18;13.40;99.90
17033;DHT22;63208;52.178;21.016;2023-05-16T07:54:45;13.40;99.90
17033;DHT22;63208;52.178;21.016;2023-05-16T07:57:12;13.50;99.90
17033;DHT22;63208;52.178;21.016;2023-05-16T07:59:40;13.60;99.90
17033;DHT22;63208;52.178;21.016;2023-05-16T08:02:26;13.70;99.90
17033;DHT22;63208;52.178;21.016;2023-05-16T08:07:24;13.90;99.90
17033;DHT22;63208;52.178;21.016;2023-05-16T08:09:51;14.00;99.90
17033;DHT22;63208;52.178;21.016;2023-05-16T08:19:48;14.10;99.90
17033;DHT22;63208;52.178;21.016;2023-05-16T08:22:14;13.70;99.90
17033;DHT22;63208;52.178;21.016;2023-05-16T08:27:41;14.20;99.90
17033;DHT22;63208;52.178;21.016;2023-05-16T08:30:11;14.10;99.90
17033;DHT22;63208;52.178;21.016;2023-05-16T08:32:40;14.00;99.90
17033;DHT22;63208;52.178;21.016;2023-05-16T08:38:07;14.00;99.90
17033;DHT22;63208;52.178;21.016;2023-05-16T08:40:33;14.10;99.90
17033;DHT22;63208;52.178;21.016;2023-05-16T08:43:00;14.00;99.90
17033;DHT22;63208;52.178;21.016;2023-05-16T08:45:31;14.20;99.90
17033;DHT22;63208;52.178;21.016;2023-05-16T08:48:00;14.20;99.90
17033;DHT22;63208;52.178;21.016;2023-05-16T08:50:51;14.20;99.90
17033;DHT22;63208;52.178;21.016;2023-05-16T08:53:20;14.30;99.90
17033;DHT22;63208;52.178;21.016;2023-05-16T08:55:47;14.40;99.90
17033;DHT22;63208;52.178;21.016;2023-05-16T08:58:16;14.40;99.90
17033;DHT22;63208;52.178;21.016;2023-05-16T09:00:46;14.30;99.90
17033;DHT22;63208;52.178;21.016;2023-05-16T09:05:52;14.50;99.90
17033;DHT22;63208;52.178;21.016;2023-05-16T09:16:33;15.00;99.90
17033;DHT22;63208;52.178;21.016;2023-05-16T09:19:13;14.70;99.90
17033;DHT22;63208;52.178;21.016;2023-05-16T09:21:40;14.70;99.90
17033;DHT22;63208;52.178;21.016;2023-05-16T09:24:07;14.70;99.90
17033;DHT22;63208;52.178;21.016;2023-05-16T09:34:10;14.70;99.90
17033;DHT22;63208;52.178;21.016;2023-05-16T09:36:37;14.60;99.90
17033;DHT22;63208;52.178;21.016;2023-05-16T09:39:05;14.50;99.90
17033;DHT22;63208;52.178;21.016;2023-05-16T09:41:32;14.80;99.90
17033;DHT22;63208;52.178;21.016;2023-05-16T09:43:59;15.00;99.90
17033;DHT22;63208;52.178;21.016;2023-05-16T09:46:29;15.20;99.90
17033;DHT22;63208;52.178;21.016;2023-05-16T09:48:56;15.30;99.90
17033;DHT22;63208;52.178;21.016;2023-05-16T09:51:24;15.30;99.90
17033;DHT22;63208;52.178;21.016;2023-05-16T09:53:51;15.10;99.90
17033;DHT22;63208;52.178;21.016;2023-05-16T09:56:18;15.00;99.90
17033;DHT22;63208;52.178;21.016;2023-05-16T09:58:45;15.00;99.90
17033;DHT22;63208;52.178;21.016;2023-05-16T10:01:12;15.20;99.90
17033;DHT22;63208;52.178;21.016;2023-05-16T10:03:39;15.20;99.90
17033;DHT22;63208;52.178;21.016;2023-05-16T10:06:07;15.20;99.90
17033;DHT22;63208;52.178;21.016;2023-05-16T10:08:35;15.30;99.90
17033;DHT22;63208;52.178;21.016;2023-05-16T10:11:05;15.30;99.90
17033;DHT22;63208;52.178;21.016;2023-05-16T10:13:33;16.10;99.90
17033;DHT22;63208;52.178;21.016;2023-05-16T10:16:01;15.50;99.90
17033;DHT22;63208;52.178;21.016;2023-05-16T10:18:31;15.60;99.90
17033;DHT22;63208;52.178;21.016;2023-05-16T10:21:00;15.60;99.90
17033;DHT22;63208;52.178;21.016;2023-05-16T10:23:29;15.60;99.90
17033;DHT22;63208;52.178;21.016;2023-05-16T10:25:59;15.60;99.90
17033;DHT22;63208;52.178;21.016;2023-05-16T10:28:26;15.70;99.90
17033;DHT22;63208;52.178;21.016;2023-05-16T10:30:53;15.60;99.90
17033;DHT22;63208;52.178;21.016;2023-05-16T10:33:21;15.70;99.90
17033;DHT22;63208;52.178;21.016;2023-05-16T10:35:47;15.80;99.90
17033;DHT22;63208;52.178;21.016;2023-05-16T10:38:15;15.80;99.90
17033;DHT22;63208;52.178;21.016;2023-05-16T10:44:00;15.70;99.90
17033;DHT22;63208;52.178;21.016;2023-05-16T10:49:34;15.80;99.90
17033;DHT22;63208;52.178;21.016;2023-05-16T11:01:14;16.20;99.90
17033;DHT22;63208;52.178;21.016;2023-05-16T11:06:23;16.10;99.90
17033;DHT22;63208;52.178;21.016;2023-05-16T11:09:34;16.20;99.90
17033;DHT22;63208;52.178;21.016;2023-05-16T11:11:46;16.30;99.90
17033;DHT22;63208;52.178;21.016;2023-05-16T11:14:20;16.00;99.90
17033;DHT22;63208;52.178;21.016;2023-05-16T11:17:05;16.10;99.90
17033;DHT22;63208;52.178;21.016;2023-05-16T11:19:38;16.10;99.90
17033;DHT22;63208;52.178;21.016;2023-05-16T11:22:06;16.30;99.90
17033;DHT22;63208;52.178;21.016;2023-05-16T11:24:33;16.40;99.90
17033;DHT22;63208;52.178;21.016;2023-05-16T11:27:02;16.20;99.90
17033;DHT22;63208;52.178;21.016;2023-05-16T11:29:31;16.20;99.90
17033;DHT22;63208;52.178;21.016;2023-05-16T11:31:59;16.20;99.90
17033;DHT22;63208;52.178;21.016;2023-05-16T11:34:27;16.30;99.90
17033;DHT22;63208;52.178;21.016;2023-05-16T11:36:54;16.30;99.90
17033;DHT22;63208;52.178;21.016;2023-05-16T11:39:21;16.30;99.90
17033;DHT22;63208;52.178;21.016;2023-05-16T11:41:50;16.50;99.90
17033;DHT22;63208;52.178;21.016;2023-05-16T11:44:18;16.60;99.90
17033;DHT22;63208;52.178;21.016;2023-05-16T11:46:50;16.70;99.90
17033;DHT22;63208;52.178;21.016;2023-05-16T11:49:18;16.80;99.90
17033;DHT22;63208;52.178;21.016;2023-05-16T11:51:47;16.60;99.90
17033;DHT22;63208;52.178;21.016;2023-05-16T11:54:14;16.50;99.90
17033;DHT22;63208;52.178;21.016;2023-05-16T11:56:43;16.50;99.90
17033;DHT22;63208;52.178;21.016;2023-05-16T11:59:10;16.30;99.90
17033;DHT22;63208;52.178;21.016;2023-05-16T12:01:37;16.30;99.90
17033;DHT22;63208;52.178;21.016;2023-05-16T12:04:06;16.30;99.90
17033;DHT22;63208;52.178;21.016;2023-05-16T12:06:33;16.60;99.90
17033;DHT22;63208;52.178;21.016;2023-05-16T12:09:03;16.90;99.90
17033;DHT22;63208;52.178;21.016;2023-05-16T12:11:35;17.10;99.90
17033;DHT22;63208;52.178;21.016;2023-05-16T12:14:02;17.20;99.90
17033;DHT22;63208;52.178;21.016;2023-05-16T12:19:28;17.40;99.90
17033;DHT22;63208;52.178;21.016;2023-05-16T12:28:03;17.50;99.90
17033;DHT22;63208;52.178;21.016;2023-05-16T12:30:32;17.90;99.90
17033;DHT22;63208;52.178;21.016;2023-05-16T12:36:02;17.90;99.90
17033;DHT22;63208;52.178;21.016;2023-05-16T12:38:33;17.50;99.90
17033;DHT22;63208;52.178;21.016;2023-05-16T12:41:02;17.50;99.90
17033;DHT22;63208;52.178;21.016;2023-05-16T12:43:32;17.50;99.90
17033;DHT22;63208;52.178;21.016;2023-05-16T12:46:08;17.40;99.90
17033;DHT22;63208;52.178;21.016;2023-05-16T12:48:35;18.50;99.90
17033;DHT22;63208;52.178;21.016;2023-05-16T12:51:10;17.40;99.90
17033;DHT22;63208;52.178;21.016;2023-05-16T12:53:41;17.10;99.90
17033;DHT22;63208;52.178;21.016;2023-05-16T12:56:13;17.10;99.90
17033;DHT22;63208;52.178;21.016;2023-05-16T12:58:44;17.20;99.90
17033;DHT22;63208;52.178;21.016;2023-05-16T13:01:13;17.40;99.90
17033;DHT22;63208;52.178;21.016;2023-05-16T13:03:43;17.50;99.90
17033;DHT22;63208;52.178;21.016;2023-05-16T13:06:13;17.50;99.90
17033;DHT22;63208;52.178;21.016;2023-05-16T13:08:42;17.60;99.90
17033;DHT22;63208;52.178;21.016;2023-05-16T13:11:10;17.70;99.90
17033;DHT22;63208;52.178;21.016;2023-05-16T13:13:40;18.00;99.90
17033;DHT22;63208;52.178;21.016;2023-05-16T13:19:13;17.80;99.90
17033;DHT22;63208;52.178;21.016;2023-05-16T13:21:44;17.80;99.90
17033;DHT22;63208;52.178;21.016;2023-05-16T13:24:13;17.90;99.90
17033;DHT22;63208;52.178;21.016;2023-05-16T13:26:45;17.00;99.90
17033;DHT22;63208;52.178;21.016;2023-05-16T13:29:14;17.50;99.90
17033;DHT22;63208;52.178;21.016;2023-05-16T13:31:41;17.70;99.90
17033;DHT22;63208;52.178;21.016;2023-05-16T13:34:07;17.80;99.90
17033;DHT22;63208;52.178;21.016;2023-05-16T13:36:40;17.70;99.90
17033;DHT22;63208;52.178;21.016;2023-05-16T13:39:09;17.90;99.90
17033;DHT22;63208;52.178;21.016;2023-05-16T13:41:37;20.20;99.90
17033;DHT22;63208;52.178;21.016;2023-05-16T13:44:05;18.10;99.90
17033;DHT22;63208;52.178;21.016;2023-05-16T13:46:33;18.10;99.90
17033;DHT22;63208;52.178;21.016;2023-05-16T13:48:59;18.60;99.90
17033;DHT22;63208;52.178;21.016;2023-05-16T13:51:26;18.60;99.90
17033;DHT22;63208;52.178;21.016;2023-05-16T13:53:54;18.50;99.90
17033;DHT22;63208;52.178;21.016;2023-05-16T13:56:21;19.00;99.90
17033;DHT22;63208;52.178;21.016;2023-05-16T13:58:57;19.00;99.90
17033;DHT22;63208;52.178;21.016;2023-05-16T14:07:31;20.70;99.90
17033;DHT22;63208;52.178;21.016;2023-05-16T14:09:59;19.10;99.90
17033;DHT22;63208;52.178;21.016;2023-05-16T14:15:29;19.30;99.90
17033;DHT22;63208;52.178;21.016;2023-05-16T14:17:56;18.80;99.90
17033;DHT22;63208;52.178;21.016;2023-05-16T14:20:23;18.90;99.90
17033;DHT22;63208;52.178;21.016;2023-05-16T14:29:08;22.50;99.90
17033;DHT22;63208;52.178;21.016;2023-05-16T14:31:35;19.50;99.90
17033;DHT22;63208;52.178;21.016;2023-05-16T14:34:02;19.20;99.90
17033;DHT22;63208;52.178;21.016;2023-05-16T14:36:29;19.30;99.90
17033;DHT22;63208;52.178;21.016;2023-05-16T14:38:56;18.80;99.90
17033;DHT22;63208;52.178;21.016;2023-05-16T14:41:25;18.60;99.90
17033;DHT22;63208;52.178;21.016;2023-05-16T14:44:05;19.10;99.90
17033;DHT22;63208;52.178;21.016;2023-05-16T14:46:33;18.30;99.90
17033;DHT22;63208;52.178;21.016;2023-05-16T14:48:59;18.20;99.90
17033;DHT22;63208;52.178;21.016;2023-05-16T14:51:26;16.60;99.90
17033;DHT22;63208;52.178;21.016;2023-05-16T14:53:53;18.20;99.90
17033;DHT22;63208;52.178;21.016;2023-05-16T14:56:20;18.30;99.90
17033;DHT22;63208;52.178;21.016;2023-05-16T14:58:47;18.50;99.90
17033;DHT22;63208;52.178;21.016;2023-05-16T15:01:14;18.60;99.90
17033;DHT22;63208;52.178;21.016;2023-05-16T15:03:42;18.40;99.90
17033;DHT22;63208;52.178;21.016;2023-05-16T15:06:09;18.30;99.90
17033;DHT22;63208;52.178;21.016;2023-05-16T15:08:41;18.30;99.90
17033;DHT22;63208;52.178;21.016;2023-05-16T15:11:18;18.50;99.90
17033;DHT22;63208;52.178;21.016;2023-05-16T15:13:45;18.60;99.90
17033;DHT22;63208;52.178;21.016;2023-05-16T15:16:13;18.70;99.90
17033;DHT22;63208;52.178;21.016;2023-05-16T15:18:41;18.70;99.90
17033;DHT22;63208;52.178;21.016;2023-05-16T15:21:08;18.80;99.90
17033;DHT22;63208;52.178;21.016;2023-05-16T15:23:35;18.80;99.90
17033;DHT22;63208;52.178;21.016;2023-05-16T15:26:02;18.60;99.90
17033;DHT22;63208;52.178;21.016;2023-05-16T15:28:29;18.60;99.90
17033;DHT22;63208;52.178;21.016;2023-05-16T15:30:55;18.60;99.90
17033;DHT22;63208;52.178;21.016;2023-05-16T15:33:22;18.60;99.90
17033;DHT22;63208;52.178;21.016;2023-05-16T15:35:51;18.60;99.90
17033;DHT22;63208;52.178;21.016;2023-05-16T15:38:17;18.50;99.90
17033;DHT22;63208;52.178;21.016;2023-05-16T15:40:44;18.50;99.90
17033;DHT22;63208;52.178;21.016;2023-05-16T15:43:14;18.50;99.90
17033;DHT22;63208;52.178;21.016;2023-05-16T15:45:42;18.50;99.90
17033;DHT22;63208;52.178;21.016;2023-05-16T15:48:30;18.50;99.90
17033;DHT22;63208;52.178;21.016;2023-05-16T15:50:58;18.50;99.90
17033;DHT22;63208;52.178;21.016;2023-05-16T15:53:25;18.50;99.90
17033;DHT22;63208;52.178;21.016;2023-05-16T15:55:52;18.50;99.90
17033;DHT22;63208;52.178;21.016;2023-05-16T15:58:19;18.50;99.90
17033;DHT22;63208;52.178;21.016;2023-05-16T16:00:46;18.50;99.90
17033;DHT22;63208;52.178;21.016;2023-05-16T16:03:13;18.40;99.90
17033;DHT22;63208;52.178;21.016;2023-05-16T16:05:40;18.40;99.90
17033;DHT22;63208;52.178;21.016;2023-05-16T16:08:08;18.40;99.90
17033;DHT22;63208;52.178;21.016;2023-05-16T16:10:35;18.40;99.90
17033;DHT22;63208;52.178;21.016;2023-05-16T16:13:02;18.40;99.90
17033;DHT22;63208;52.178;21.016;2023-05-16T16:15:29;18.30;99.90
17033;DHT22;63208;52.178;21.016;2023-05-16T16:17:56;18.30;99.90
17033;DHT22;63208;52.178;21.016;2023-05-16T16:20:23;18.20;99.90
17033;DHT22;63208;52.178;21.016;2023-05-16T16:22:50;18.20;99.90
17033;DHT22;63208;52.178;21.016;2023-05-16T16:25:19;18.20;99.90
17033;DHT22;63208;52.178;21.016;2023-05-16T16:27:45;18.20;99.90
17033;DHT22;63208;52.178;21.016;2023-05-16T16:30:12;18.20;99.90
17033;DHT22;63208;52.178;21.016;2023-05-16T16:32:39;18.20;99.90
17033;DHT22;63208;52.178;21.016;2023-05-16T16:37:50;18.10;99.90
17033;DHT22;63208;52.178;21.016;2023-05-16T16:40:16;18.00;99.90
17033;DHT22;63208;52.178;21.016;2023-05-16T16:42:45;18.00;99.90
17033;DHT22;63208;52.178;21.016;2023-05-16T16:45:11;18.10;99.90
17033;DHT22;63208;52.178;21.016;2023-05-16T16:47:38;15.60;99.90
17033;DHT22;63208;52.178;21.016;2023-05-16T16:50:05;17.90;99.90
17033;DHT22;63208;52.178;21.016;2023-05-16T16:52:32;17.90;99.90
17033;DHT22;63208;52.178;21.016;2023-05-16T16:54:59;17.90;99.90